메인 페이지
METAR-TAF:

METAR-TAF

공항 :

바레인, 바레인

바레인 국제공항

위도: 26-16N, 경도: 050-39E, 고도: 2m

현재 날씨관측

예보는 23분 전, 13:30시(UTC)에 발표되었습니다.
11kt
온도 21°C
습도 53%
기압 1014 hPa
시정: 5000m
맑음
황사

METAR: OBBI 191330Z 36011KT 5000 DU SKC 21/11 Q1014 NOSIG

시각: 16:53 (13:53 UTC)

예보

예보는 2 시간 53분 전, 11:00시(UTC)에 발표되었습니다.
예보 대상 시간: 19일 12시부터 20일 18시까지 (UTC)
12kt
시정: 7000m
확률 30% :
일시적
19일 12시부터 19일 18시까지 (UTC)
시정: 3000m
황사

TAF: OBBI 191100Z 1912/2018 35012KT 7000 NSC PROB30 TEMPO 1912/1918 3000 DU

4,000개 이상의 공항 관측 자료 및 예보 (METAR 및 TAF 보고).

지도상에서 검색 가능한 기상관측소가 노란 점과 빨간 점으로 표시되어 있습니다.

기상관측소 명을 보려면 표시 위로 마우스를 이동하세요.

날씨 관측과 예보를 보려면 클릭하세요.

지도 변경 : 확대하려면 엑스 표시가 있는 녹색 버튼, 축소하려면 빼기 표시가 있는 녹색 버튼, 다음 페이지의 지도를 보려면 녹색 화살표를 클릭하세요.


METAR-TAF: